ARA227 LIMC-EDDH
Flight info
| Callsign | ARA227 |
|---|---|
| Flight time | 1h 12m |
| Altitude | 34000 |
| Route | PEPAG DCT ABESI N851 UTAVO DCT ROLSA/N0454F350 DCT LOKTA DCT TEDGO DCT HAREM DCT LOHRE DCT MASEK DCT ELNAT/N0453F360 P605 NOLGO NOLGO6A |
| Aircraft | B737/M-SDE2E3FGHIRWXY/LB1 |
Departure
| Time | 2026-05-05 11:26 |
|---|---|
| Airport | Milan Malpensa International Airport (LIMC) |
Arrival
| Time | 2026-05-05 12:39 |
|---|---|
| Airport | Hamburg Helmut Schmidt Airport (EDDH) |
| Time | Latitude | Longitude | Altitude | Speed | Heading |
|---|---|---|---|---|---|
| 2026-05-05 09:44 | 45.62400 | 8.71716 | 699 ft | 0 kts | 345° |
| 2026-05-05 10:53 | 45.62400 | 8.71717 | 727 ft | 0 kts | 345° |
| 2026-05-05 11:09 | 45.62397 | 8.71718 | 727 ft | 2 kts | 345° |
| 2026-05-05 11:10 | 45.62381 | 8.71724 | 726 ft | 2 kts | 345° |
| 2026-05-05 11:10 | 45.62365 | 8.71730 | 726 ft | 2 kts | 345° |
| 2026-05-05 11:10 | 45.62349 | 8.71735 | 725 ft | 2 kts | 0° |
| 2026-05-05 11:10 | 45.62334 | 8.71729 | 725 ft | 1 kts | 61° |
| 2026-05-05 11:11 | 45.62332 | 8.71721 | 725 ft | 0 kts | 71° |
| 2026-05-05 11:19 | 45.62333 | 8.71726 | 725 ft | 3 kts | 73° |
| 2026-05-05 11:19 | 45.62334 | 8.71812 | 727 ft | 13 kts | 91° |
| 2026-05-05 11:20 | 45.62306 | 8.71928 | 724 ft | 13 kts | 157° |
| 2026-05-05 11:20 | 45.62220 | 8.71951 | 724 ft | 12 kts | 168° |
| 2026-05-05 11:20 | 45.62185 | 8.72025 | 722 ft | 10 kts | 84° |
| 2026-05-05 11:20 | 45.62197 | 8.72114 | 724 ft | 9 kts | 77° |
| 2026-05-05 11:21 | 45.62212 | 8.72237 | 722 ft | 14 kts | 92° |
| 2026-05-05 11:21 | 45.62234 | 8.72387 | 721 ft | 19 kts | 79° |
| 2026-05-05 11:21 | 45.62262 | 8.72603 | 721 ft | 23 kts | 79° |
| 2026-05-05 11:21 | 45.62292 | 8.72825 | 721 ft | 22 kts | 79° |
| 2026-05-05 11:22 | 45.62281 | 8.73026 | 719 ft | 21 kts | 153° |
| 2026-05-05 11:22 | 45.62140 | 8.73066 | 719 ft | 20 kts | 169° |
| 2026-05-05 11:22 | 45.62004 | 8.73104 | 714 ft | 20 kts | 169° |
| 2026-05-05 11:22 | 45.61872 | 8.73140 | 711 ft | 19 kts | 167° |
| 2026-05-05 11:23 | 45.61745 | 8.73207 | 702 ft | 21 kts | 133° |
| 2026-05-05 11:23 | 45.61662 | 8.73379 | 703 ft | 21 kts | 125° |
| 2026-05-05 11:23 | 45.61592 | 8.73543 | 700 ft | 14 kts | 106° |
| 2026-05-05 11:23 | 45.61587 | 8.73586 | 697 ft | 0 kts | 92° |
| 2026-05-05 11:24 | 45.61587 | 8.73587 | 697 ft | 1 kts | 92° |
| 2026-05-05 11:24 | 45.61589 | 8.73637 | 701 ft | 12 kts | 84° |
| 2026-05-05 11:25 | 45.61611 | 8.73738 | 695 ft | 3 kts | 15° |
| 2026-05-05 11:25 | 45.61624 | 8.73734 | 700 ft | 0 kts | 349° |
| 2026-05-05 11:25 | 45.61646 | 8.73728 | 701 ft | 19 kts | 349° |
| 2026-05-05 11:26 | 45.62039 | 8.73621 | 713 ft | 94 kts | 349° |
| 2026-05-05 11:26 | 45.62900 | 8.73383 | 731 ft | 156 kts | 349° |
| 2026-05-05 11:26 | 45.63998 | 8.73079 | 1475 ft | 157 kts | 348° |
| 2026-05-05 11:26 | 45.64702 | 8.72866 | 2129 ft | 157 kts | 350° |
| 2026-05-05 11:27 | 45.65792 | 8.72560 | 2859 ft | 167 kts | 353° |
| 2026-05-05 11:27 | 45.67002 | 8.72490 | 3360 ft | 185 kts | 14° |
| 2026-05-05 11:27 | 45.68147 | 8.73460 | 3698 ft | 201 kts | 57° |
| 2026-05-05 11:27 | 45.68492 | 8.75369 | 4254 ft | 207 kts | 94° |
| 2026-05-05 11:28 | 45.68273 | 8.77485 | 4742 ft | 219 kts | 103° |
| 2026-05-05 11:28 | 45.67951 | 8.79649 | 5512 ft | 225 kts | 103° |
| 2026-05-05 11:28 | 45.67616 | 8.81833 | 6456 ft | 226 kts | 103° |
| 2026-05-05 11:28 | 45.67398 | 8.84102 | 7079 ft | 243 kts | 86° |
| 2026-05-05 11:29 | 45.68097 | 8.86432 | 7417 ft | 274 kts | 49° |
| 2026-05-05 11:29 | 45.69688 | 8.88046 | 8110 ft | 287 kts | 28° |
| 2026-05-05 11:29 | 45.71502 | 8.89273 | 8894 ft | 295 kts | 25° |
| 2026-05-05 11:29 | 45.73404 | 8.90478 | 9677 ft | 302 kts | 24° |
| 2026-05-05 11:30 | 45.75349 | 8.91712 | 10411 ft | 311 kts | 24° |
| 2026-05-05 11:30 | 45.77408 | 8.93039 | 10664 ft | 338 kts | 24° |
| 2026-05-05 11:30 | 45.79605 | 8.94477 | 10853 ft | 364 kts | 24° |
| 2026-05-05 11:30 | 45.81966 | 8.96042 | 11169 ft | 382 kts | 25° |
| 2026-05-05 11:31 | 45.84411 | 8.97677 | 11804 ft | 390 kts | 25° |
| 2026-05-05 11:31 | 45.86879 | 8.99334 | 12543 ft | 394 kts | 25° |
| 2026-05-05 11:31 | 45.89379 | 9.01016 | 13287 ft | 399 kts | 25° |
| 2026-05-05 11:31 | 45.91915 | 9.02724 | 13990 ft | 405 kts | 24° |
| 2026-05-05 11:32 | 45.94474 | 9.04448 | 14684 ft | 409 kts | 24° |
| 2026-05-05 11:32 | 45.97143 | 9.05899 | 15315 ft | 413 kts | 13° |
| 2026-05-05 11:32 | 45.99983 | 9.06604 | 16001 ft | 415 kts | 2° |
| 2026-05-05 11:32 | 46.02869 | 9.06570 | 16720 ft | 416 kts | 352° |
| 2026-05-05 11:33 | 46.05759 | 9.06080 | 17413 ft | 421 kts | 350° |
| 2026-05-05 11:33 | 46.08686 | 9.05524 | 18004 ft | 427 kts | 350° |
| 2026-05-05 11:33 | 46.11655 | 9.04996 | 18652 ft | 431 kts | 351° |
| 2026-05-05 11:33 | 46.14646 | 9.04504 | 19251 ft | 435 kts | 352° |
| 2026-05-05 11:34 | 46.17669 | 9.04039 | 19819 ft | 439 kts | 352° |
| 2026-05-05 11:34 | 46.20723 | 9.03620 | 20356 ft | 444 kts | 353° |
| 2026-05-05 11:34 | 46.23811 | 9.03216 | 20890 ft | 448 kts | 353° |
| 2026-05-05 11:34 | 46.26934 | 9.02809 | 21436 ft | 452 kts | 353° |
| 2026-05-05 11:35 | 46.30081 | 9.02393 | 21977 ft | 456 kts | 352° |
| 2026-05-05 11:35 | 46.33256 | 9.01966 | 22491 ft | 460 kts | 352° |
| 2026-05-05 11:35 | 46.36453 | 9.01533 | 22996 ft | 463 kts | 353° |
| 2026-05-05 11:35 | 46.39637 | 9.01102 | 23422 ft | 467 kts | 352° |
| 2026-05-05 11:36 | 46.42887 | 9.00658 | 23815 ft | 471 kts | 352° |
| 2026-05-05 11:36 | 46.46162 | 9.00215 | 24258 ft | 474 kts | 353° |
| 2026-05-05 11:36 | 46.49450 | 8.99771 | 24662 ft | 475 kts | 353° |
| 2026-05-05 11:36 | 46.52748 | 8.99327 | 25064 ft | 478 kts | 353° |
| 2026-05-05 11:37 | 46.56068 | 8.98880 | 25455 ft | 481 kts | 353° |
| 2026-05-05 11:37 | 46.59414 | 8.98431 | 25824 ft | 484 kts | 353° |
| 2026-05-05 11:37 | 46.62774 | 8.97977 | 26187 ft | 487 kts | 353° |
| 2026-05-05 11:37 | 46.66160 | 8.97519 | 26461 ft | 490 kts | 353° |
| 2026-05-05 11:38 | 46.69568 | 8.97054 | 26780 ft | 492 kts | 353° |
| 2026-05-05 11:38 | 46.72989 | 8.96590 | 27161 ft | 494 kts | 353° |
| 2026-05-05 11:38 | 46.76419 | 8.96124 | 27505 ft | 497 kts | 354° |
| 2026-05-05 11:38 | 46.79872 | 8.95655 | 27829 ft | 500 kts | 354° |
| 2026-05-05 11:39 | 46.83347 | 8.95181 | 28114 ft | 503 kts | 354° |
| 2026-05-05 11:39 | 46.86843 | 8.94704 | 28382 ft | 506 kts | 354° |
| 2026-05-05 11:39 | 46.90345 | 8.94228 | 28853 ft | 504 kts | 354° |
| 2026-05-05 11:39 | 46.93824 | 8.93752 | 29404 ft | 502 kts | 354° |
| 2026-05-05 11:40 | 46.97311 | 8.93274 | 29769 ft | 504 kts | 354° |
| 2026-05-05 11:40 | 47.00804 | 8.92794 | 30097 ft | 505 kts | 354° |
| 2026-05-05 11:40 | 47.04300 | 8.92313 | 30536 ft | 502 kts | 354° |
| 2026-05-05 11:40 | 47.07767 | 8.91836 | 31093 ft | 498 kts | 354° |
| 2026-05-05 11:41 | 47.11167 | 8.91367 | 31539 ft | 496 kts | 353° |
| 2026-05-05 11:41 | 47.14647 | 8.90887 | 31934 ft | 496 kts | 353° |
| 2026-05-05 11:41 | 47.18038 | 8.90419 | 32263 ft | 496 kts | 353° |
| 2026-05-05 11:41 | 47.21465 | 8.89945 | 32640 ft | 495 kts | 353° |
| 2026-05-05 11:42 | 47.24891 | 8.89470 | 33042 ft | 493 kts | 353° |
| 2026-05-05 11:42 | 47.28309 | 8.89203 | 33416 ft | 493 kts | 0° |
| 2026-05-05 11:42 | 47.31721 | 8.89612 | 33748 ft | 493 kts | 10° |
| 2026-05-05 11:42 | 47.35081 | 8.90642 | 33902 ft | 495 kts | 12° |
| 2026-05-05 11:43 | 47.38443 | 8.91799 | 33889 ft | 495 kts | 13° |
| 2026-05-05 11:43 | 47.45133 | 8.94163 | 33870 ft | 493 kts | 13° |
| 2026-05-05 11:44 | 47.51805 | 8.96448 | 33878 ft | 491 kts | 13° |
| 2026-05-05 11:44 | 47.58461 | 8.98671 | 33872 ft | 489 kts | 13° |
| 2026-05-05 11:45 | 47.65033 | 9.00857 | 33878 ft | 489 kts | 13° |
| 2026-05-05 11:45 | 47.71673 | 9.03075 | 33880 ft | 489 kts | 13° |
| 2026-05-05 11:46 | 47.78316 | 9.05303 | 33883 ft | 491 kts | 13° |
| 2026-05-05 11:46 | 47.84951 | 9.07535 | 33880 ft | 493 kts | 13° |
| 2026-05-05 11:47 | 47.91659 | 9.09798 | 33872 ft | 495 kts | 13° |
| 2026-05-05 11:47 | 47.98382 | 9.12072 | 33874 ft | 497 kts | 13° |
| 2026-05-05 11:48 | 48.08520 | 9.15513 | 33854 ft | 498 kts | 13° |
| 2026-05-05 11:48 | 48.15277 | 9.17813 | 33858 ft | 498 kts | 13° |
| 2026-05-05 11:49 | 48.22112 | 9.19455 | 33865 ft | 497 kts | 6° |
| 2026-05-05 11:49 | 48.29009 | 9.20472 | 33859 ft | 497 kts | 5° |
| 2026-05-05 11:50 | 48.35854 | 9.21512 | 33861 ft | 497 kts | 6° |
| 2026-05-05 11:50 | 48.42731 | 9.22656 | 33843 ft | 497 kts | 6° |
| 2026-05-05 11:51 | 48.49601 | 9.23827 | 33842 ft | 497 kts | 6° |
| 2026-05-05 11:51 | 48.56466 | 9.24994 | 33832 ft | 497 kts | 6° |
| 2026-05-05 11:52 | 48.63341 | 9.26155 | 33829 ft | 496 kts | 6° |
| 2026-05-05 11:52 | 48.70210 | 9.27215 | 33830 ft | 496 kts | 5° |
| 2026-05-05 11:53 | 48.77081 | 9.28239 | 33832 ft | 496 kts | 5° |
| 2026-05-05 11:53 | 48.83958 | 9.29279 | 33824 ft | 496 kts | 5° |
| 2026-05-05 11:54 | 48.90786 | 9.30324 | 33836 ft | 497 kts | 5° |
| 2026-05-05 11:54 | 48.97681 | 9.31387 | 33838 ft | 499 kts | 5° |
| 2026-05-05 11:55 | 49.04592 | 9.32454 | 33844 ft | 500 kts | 5° |
| 2026-05-05 11:55 | 49.11529 | 9.33528 | 33834 ft | 502 kts | 5° |
| 2026-05-05 11:56 | 49.18495 | 9.34609 | 33845 ft | 503 kts | 5° |
| 2026-05-05 11:56 | 49.25465 | 9.35693 | 33846 ft | 503 kts | 4° |
| 2026-05-05 11:57 | 49.32439 | 9.36782 | 33844 ft | 503 kts | 4° |
| 2026-05-05 11:57 | 49.39395 | 9.37871 | 33843 ft | 502 kts | 4° |
| 2026-05-05 11:58 | 49.46339 | 9.38962 | 33855 ft | 501 kts | 4° |
| 2026-05-05 11:58 | 49.53231 | 9.40046 | 33843 ft | 501 kts | 4° |
| 2026-05-05 11:59 | 49.60159 | 9.41140 | 33849 ft | 499 kts | 3° |
| 2026-05-05 11:59 | 49.67045 | 9.42232 | 33843 ft | 497 kts | 3° |
| 2026-05-05 12:00 | 49.73913 | 9.43328 | 33844 ft | 495 kts | 3° |
| 2026-05-05 12:00 | 49.80746 | 9.44421 | 33858 ft | 492 kts | 3° |
| 2026-05-05 12:01 | 49.87311 | 9.45474 | 33848 ft | 491 kts | 3° |
| 2026-05-05 12:01 | 49.94061 | 9.46559 | 33838 ft | 490 kts | 3° |
| 2026-05-05 12:02 | 50.00840 | 9.47652 | 33839 ft | 490 kts | 3° |
| 2026-05-05 12:02 | 50.02402 | 9.47904 | 33832 ft | 490 kts | 3° |
| 2026-05-05 12:03 | 50.05741 | 9.48446 | 33812 ft | 475 kts | 3° |
| 2026-05-05 12:03 | 50.08973 | 9.48978 | 33854 ft | 456 kts | 3° |
| 2026-05-05 12:03 | 50.12031 | 9.49495 | 33851 ft | 428 kts | 3° |
| 2026-05-05 12:03 | 50.14901 | 9.49985 | 33844 ft | 402 kts | 2° |
| 2026-05-05 12:04 | 50.17636 | 9.50449 | 33867 ft | 390 kts | 2° |
| 2026-05-05 12:04 | 50.20295 | 9.50895 | 33849 ft | 379 kts | 2° |
| 2026-05-05 12:04 | 50.25415 | 9.51750 | 33822 ft | 362 kts | 2° |
| 2026-05-05 12:05 | 50.30319 | 9.52572 | 33824 ft | 348 kts | 2° |
| 2026-05-05 12:05 | 50.35050 | 9.53368 | 33825 ft | 336 kts | 1° |
| 2026-05-05 12:06 | 50.39634 | 9.54140 | 33823 ft | 328 kts | 1° |
| 2026-05-05 12:06 | 50.44220 | 9.54909 | 33815 ft | 337 kts | 1° |
| 2026-05-05 12:07 | 50.48975 | 9.55705 | 33586 ft | 359 kts | 1° |
| 2026-05-05 12:07 | 50.51529 | 9.56133 | 33320 ft | 379 kts | 2° |
| 2026-05-05 12:07 | 50.54195 | 9.56584 | 33283 ft | 391 kts | 2° |
| 2026-05-05 12:08 | 50.56908 | 9.57050 | 33557 ft | 394 kts | 2° |
| 2026-05-05 12:08 | 50.59653 | 9.57523 | 33722 ft | 401 kts | 2° |
| 2026-05-05 12:08 | 50.65319 | 9.58495 | 33856 ft | 418 kts | 2° |
| 2026-05-05 12:09 | 50.71239 | 9.59508 | 33870 ft | 437 kts | 2° |
| 2026-05-05 12:09 | 50.77419 | 9.60628 | 33865 ft | 456 kts | 3° |
| 2026-05-05 12:10 | 50.83827 | 9.61890 | 33860 ft | 472 kts | 3° |
| 2026-05-05 12:10 | 50.90436 | 9.63198 | 33864 ft | 485 kts | 3° |
| 2026-05-05 12:11 | 50.97208 | 9.64530 | 33852 ft | 493 kts | 3° |
| 2026-05-05 12:11 | 51.04010 | 9.65868 | 33844 ft | 491 kts | 3° |
| 2026-05-05 12:12 | 51.10793 | 9.67203 | 33850 ft | 491 kts | 3° |
| 2026-05-05 12:12 | 51.17520 | 9.68530 | 33849 ft | 490 kts | 3° |
| 2026-05-05 12:13 | 51.24280 | 9.69793 | 33855 ft | 488 kts | 1° |
| 2026-05-05 12:13 | 51.31032 | 9.70845 | 33861 ft | 487 kts | 1° |
| 2026-05-05 12:14 | 51.37783 | 9.71902 | 33857 ft | 487 kts | 1° |
| 2026-05-05 12:14 | 51.44523 | 9.72995 | 33867 ft | 486 kts | 1° |
| 2026-05-05 12:15 | 51.51253 | 9.74165 | 33862 ft | 487 kts | 2° |
| 2026-05-05 12:15 | 51.57969 | 9.75490 | 33858 ft | 486 kts | 2° |
| 2026-05-05 12:16 | 51.63539 | 9.76569 | 33862 ft | 485 kts | 2° |
| 2026-05-05 12:16 | 51.70237 | 9.77841 | 33854 ft | 484 kts | 2° |
| 2026-05-05 12:17 | 51.76927 | 9.79111 | 33862 ft | 484 kts | 2° |
| 2026-05-05 12:17 | 51.84690 | 9.80595 | 33871 ft | 483 kts | 2° |
| 2026-05-05 12:18 | 51.90283 | 9.81667 | 33886 ft | 482 kts | 2° |
| 2026-05-05 12:18 | 51.96953 | 9.82948 | 33874 ft | 483 kts | 2° |
| 2026-05-05 12:19 | 52.03625 | 9.84234 | 33883 ft | 482 kts | 2° |
| 2026-05-05 12:19 | 52.10232 | 9.85511 | 33889 ft | 481 kts | 2° |
| 2026-05-05 12:20 | 52.16909 | 9.86807 | 33895 ft | 480 kts | 2° |
| 2026-05-05 12:20 | 52.23494 | 9.88087 | 33898 ft | 479 kts | 2° |
| 2026-05-05 12:21 | 52.30059 | 9.90298 | 33916 ft | 484 kts | 11° |
| 2026-05-05 12:21 | 52.36536 | 9.93327 | 33911 ft | 484 kts | 11° |
| 2026-05-05 12:22 | 52.43018 | 9.96306 | 33916 ft | 483 kts | 10° |
| 2026-05-05 12:22 | 52.49501 | 9.99182 | 33911 ft | 482 kts | 9° |
| 2026-05-05 12:23 | 52.55995 | 10.02060 | 33529 ft | 488 kts | 9° |
| 2026-05-05 12:23 | 52.59268 | 10.03517 | 32750 ft | 487 kts | 10° |
| 2026-05-05 12:23 | 52.62537 | 10.04982 | 31882 ft | 487 kts | 10° |
| 2026-05-05 12:24 | 52.65805 | 10.06448 | 31018 ft | 487 kts | 11° |
| 2026-05-05 12:24 | 52.69090 | 10.07923 | 30081 ft | 490 kts | 11° |
| 2026-05-05 12:24 | 52.72385 | 10.09403 | 28989 ft | 491 kts | 11° |
| 2026-05-05 12:24 | 52.75674 | 10.10874 | 27894 ft | 491 kts | 10° |
| 2026-05-05 12:25 | 52.79013 | 10.11938 | 26724 ft | 487 kts | 2° |
| 2026-05-05 12:25 | 52.82383 | 10.12216 | 25591 ft | 484 kts | 357° |
| 2026-05-05 12:25 | 52.85666 | 10.12276 | 24790 ft | 476 kts | 356° |
| 2026-05-05 12:25 | 52.88923 | 10.12300 | 23969 ft | 470 kts | 356° |
| 2026-05-05 12:26 | 52.92175 | 10.12334 | 23079 ft | 464 kts | 357° |
| 2026-05-05 12:26 | 52.95383 | 10.12391 | 22147 ft | 458 kts | 358° |
| 2026-05-05 12:26 | 52.98543 | 10.12471 | 21310 ft | 450 kts | 358° |
| 2026-05-05 12:26 | 53.01653 | 10.12564 | 20474 ft | 444 kts | 358° |
| 2026-05-05 12:27 | 53.04712 | 10.12662 | 19648 ft | 434 kts | 358° |
| 2026-05-05 12:27 | 53.07682 | 10.12763 | 18846 ft | 422 kts | 358° |
| 2026-05-05 12:27 | 53.10605 | 10.12859 | 18058 ft | 418 kts | 358° |
| 2026-05-05 12:27 | 53.13497 | 10.12952 | 17178 ft | 414 kts | 358° |
| 2026-05-05 12:28 | 53.16363 | 10.13044 | 16361 ft | 409 kts | 359° |
| 2026-05-05 12:28 | 53.19197 | 10.13134 | 15568 ft | 405 kts | 359° |
| 2026-05-05 12:28 | 53.21998 | 10.13224 | 14785 ft | 401 kts | 359° |
| 2026-05-05 12:28 | 53.24781 | 10.13314 | 14013 ft | 398 kts | 359° |
| 2026-05-05 12:29 | 53.27535 | 10.13403 | 13188 ft | 394 kts | 359° |
| 2026-05-05 12:29 | 53.30264 | 10.13492 | 12365 ft | 391 kts | 359° |
| 2026-05-05 12:29 | 53.32976 | 10.13581 | 11564 ft | 387 kts | 359° |
| 2026-05-05 12:29 | 53.35583 | 10.13046 | 11163 ft | 369 kts | 338° |
| 2026-05-05 12:30 | 53.37692 | 10.10887 | 11008 ft | 346 kts | 313° |
| 2026-05-05 12:30 | 53.38929 | 10.07624 | 10928 ft | 323 kts | 290° |
| 2026-05-05 12:30 | 53.39617 | 10.04063 | 10380 ft | 321 kts | 284° |
| 2026-05-05 12:30 | 53.40185 | 10.00526 | 10123 ft | 310 kts | 283° |
| 2026-05-05 12:31 | 53.40732 | 9.97014 | 9428 ft | 311 kts | 283° |
| 2026-05-05 12:31 | 53.41266 | 9.93536 | 8734 ft | 305 kts | 283° |
| 2026-05-05 12:31 | 53.41785 | 9.90113 | 8082 ft | 300 kts | 282° |
| 2026-05-05 12:31 | 53.42102 | 9.86692 | 7427 ft | 295 kts | 275° |
| 2026-05-05 12:32 | 53.42290 | 9.83289 | 6809 ft | 292 kts | 274° |
| 2026-05-05 12:32 | 53.42447 | 9.79929 | 6268 ft | 286 kts | 274° |
| 2026-05-05 12:32 | 53.42597 | 9.76646 | 5759 ft | 279 kts | 274° |
| 2026-05-05 12:32 | 53.42738 | 9.73447 | 5242 ft | 273 kts | 274° |
| 2026-05-05 12:33 | 53.42896 | 9.70293 | 4728 ft | 268 kts | 281° |
| 2026-05-05 12:33 | 53.43716 | 9.67561 | 4218 ft | 264 kts | 316° |
| 2026-05-05 12:33 | 53.45280 | 9.66229 | 4037 ft | 248 kts | 353° |
| 2026-05-05 12:33 | 53.46886 | 9.66729 | 3988 ft | 232 kts | 31° |
| 2026-05-05 12:34 | 53.48058 | 9.68517 | 4001 ft | 228 kts | 50° |
| 2026-05-05 12:34 | 53.49054 | 9.70561 | 3869 ft | 231 kts | 50° |
| 2026-05-05 12:34 | 53.50076 | 9.72652 | 3579 ft | 231 kts | 50° |
| 2026-05-05 12:34 | 53.51096 | 9.74723 | 3293 ft | 230 kts | 50° |
| 2026-05-05 12:35 | 53.52118 | 9.76786 | 3008 ft | 229 kts | 50° |
| 2026-05-05 12:35 | 53.53133 | 9.78836 | 2716 ft | 227 kts | 50° |
| 2026-05-05 12:35 | 53.54116 | 9.80815 | 2585 ft | 213 kts | 50° |
| 2026-05-05 12:35 | 53.55038 | 9.82670 | 2448 ft | 198 kts | 50° |
| 2026-05-05 12:36 | 53.55874 | 9.84354 | 2315 ft | 178 kts | 50° |
| 2026-05-05 12:36 | 53.56605 | 9.85828 | 2270 ft | 154 kts | 49° |
| 2026-05-05 12:36 | 53.57287 | 9.87175 | 1979 ft | 141 kts | 49° |
| 2026-05-05 12:36 | 53.57904 | 9.88413 | 1632 ft | 140 kts | 51° |
| 2026-05-05 12:37 | 53.58508 | 9.89711 | 1217 ft | 135 kts | 50° |
| 2026-05-05 12:37 | 53.59099 | 9.90897 | 1062 ft | 134 kts | 50° |
| 2026-05-05 12:37 | 53.59700 | 9.92098 | 813 ft | 132 kts | 50° |
| 2026-05-05 12:37 | 53.60294 | 9.93277 | 611 ft | 135 kts | 51° |
| 2026-05-05 12:38 | 53.60911 | 9.94526 | 389 ft | 140 kts | 52° |
| 2026-05-05 12:38 | 53.61531 | 9.95777 | 217 ft | 139 kts | 52° |
| 2026-05-05 12:38 | 53.62142 | 9.97011 | 50 ft | 135 kts | 52° |
| 2026-05-05 12:38 | 53.62672 | 9.98084 | 48 ft | 100 kts | 50° |
| 2026-05-05 12:39 | 53.63038 | 9.98827 | 48 ft | 65 kts | 47° |
| 2026-05-05 12:39 | 53.63254 | 9.99257 | 52 ft | 31 kts | 53° |
| 2026-05-05 12:39 | 53.63291 | 9.99489 | 49 ft | 19 kts | 95° |
| 2026-05-05 12:39 | 53.63276 | 9.99675 | 49 ft | 9 kts | 98° |
| 2026-05-05 12:40 | 53.63276 | 9.99681 | 49 ft | 0 kts | 98° |
| 2026-05-05 12:40 | 53.63276 | 9.99683 | 49 ft | 0 kts | 98° |
| 2026-05-05 12:40 | 53.63263 | 9.99724 | 47 ft | 8 kts | 134° |
| 2026-05-05 12:40 | 53.63180 | 9.99797 | 49 ft | 24 kts | 152° |
| 2026-05-05 12:41 | 53.63031 | 9.99929 | 49 ft | 23 kts | 153° |
| 2026-05-05 12:41 | 53.62909 | 10.00058 | 49 ft | 13 kts | 99° |
| 2026-05-05 12:41 | 53.62911 | 10.00078 | 49 ft | 0 kts | 72° |
| 2026-05-05 12:41 | 53.62914 | 10.00088 | 50 ft | 3 kts | 63° |
| 2026-05-05 12:42 | 53.62911 | 10.00160 | 50 ft | 9 kts | 118° |
| 2026-05-05 12:42 | 53.62891 | 10.00215 | 47 ft | 0 kts | 122° |
| 2026-05-05 12:56 | 53.62891 | 10.00214 | 49 ft | 0 kts | 122° |
| 2026-05-05 13:13 | 53.62891 | 10.00213 | 50 ft | 0 kts | 122° |
| 2026-05-05 13:19 | 53.62892 | 10.00213 | 50 ft | 0 kts | 122° |
| 2026-05-05 13:19 | 53.62891 | 10.00213 | 50 ft | 0 kts | 122° |
| 2026-05-05 13:19 | 53.62892 | 10.00213 | 50 ft | 0 kts | 122° |
| 2026-05-05 13:29 | 53.62892 | 10.00212 | 50 ft | 0 kts | 122° |
| 2026-05-05 13:46 | 53.62892 | 10.00211 | 50 ft | 0 kts | 122° |
| 2026-05-05 14:03 | 53.62892 | 10.00210 | 50 ft | 0 kts | 122° |
| 2026-05-05 14:12 | 53.62893 | 10.00210 | 50 ft | 0 kts | 122° |
| 2026-05-05 14:19 | 53.62893 | 10.00209 | 50 ft | 0 kts | 122° |